Denver (DEN/KDEN)

Information

Location
Denver, CO
Local Time
16:38 / 4:38 pm
GMT Time
22:38 / 10:38 pm
Gates
C30
No FAA reported delays
METAR KDEN 242153Z 05012KT 10SM SCT100 BKN150 BKN220 37/01 A3002 RMK AO2 SLP066 T03720006
TAF KDEN 242212Z 2422/2524 02006KT P6SM FEW100 SCT220 FM250100 17015G24KT P6SM SCT080 BKN150 FM250600 20014KT P6SM SCT120 BKN220 FM251400 25008KT P6SM SCT090 BKN150 FM252100 19006KT P6SM VCTS SCT090CB BKN120